createdAt,value
2023-07-26T00:02:23.713Z,57.46
2023-07-26T00:05:26.143Z,57.35
2023-07-26T00:08:28.452Z,57.23
2023-07-26T00:11:31.078Z,57.13
2023-07-26T00:14:33.690Z,57.14
2023-07-26T00:17:36.148Z,57.27
2023-07-26T00:20:38.563Z,57.11
2023-07-26T00:23:40.966Z,57.33
2023-07-26T00:26:43.350Z,57.40
2023-07-26T00:29:45.788Z,57.30
2023-07-26T00:32:48.185Z,57.19
2023-07-26T00:35:50.562Z,57.24
2023-07-26T00:38:52.904Z,57.38
2023-07-26T00:41:55.278Z,57.21
2023-07-26T00:44:57.624Z,57.49
2023-07-26T00:48:00.070Z,57.32
2023-07-26T00:51:03.129Z,57.20
2023-07-26T00:54:07.098Z,57.54
2023-07-26T00:57:10.298Z,57.18
2023-07-26T01:00:13.545Z,57.52
2023-07-26T01:03:16.086Z,57.20
2023-07-26T01:06:33.663Z,57.36
2023-07-26T01:09:38.947Z,57.45
2023-07-26T01:12:47.655Z,57.14
2023-07-26T01:15:50.865Z,57.64
2023-07-26T01:18:54.157Z,57.74
2023-07-26T01:21:56.566Z,57.64
2023-07-26T01:24:59.024Z,57.28
2023-07-26T01:28:01.682Z,57.43
2023-07-26T01:31:05.251Z,57.54
2023-07-26T01:34:09.318Z,57.33
2023-07-26T01:37:12.192Z,57.50
2023-07-26T01:40:15.726Z,57.75
2023-07-26T01:43:18.820Z,57.56
2023-07-26T01:46:21.277Z,57.69
2023-07-26T01:49:23.768Z,57.53
2023-07-26T01:52:26.109Z,57.54
2023-07-26T01:55:30.340Z,57.87
2023-07-26T01:58:32.756Z,57.63
2023-07-26T02:01:35.443Z,57.51
2023-07-26T02:04:39.323Z,57.56
2023-07-26T02:07:41.784Z,57.80
2023-07-26T02:10:44.462Z,57.63
2023-07-26T02:13:46.821Z,57.84
2023-07-26T02:16:49.204Z,58.08
2023-07-26T02:19:51.563Z,57.74
2023-07-26T02:22:54.600Z,57.74
2023-07-26T02:25:56.939Z,57.86
2023-07-26T02:28:59.305Z,57.94
2023-07-26T02:32:01.802Z,57.75
2023-07-26T02:35:04.493Z,58.19
2023-07-26T02:38:06.896Z,57.83
2023-07-26T02:41:10.772Z,57.83
2023-07-26T02:44:14.645Z,58.23
2023-07-26T02:47:17.045Z,57.90
2023-07-26T02:50:19.496Z,58.14
2023-07-26T02:53:22.523Z,58.14
2023-07-26T02:56:24.964Z,58.27
2023-07-26T02:59:27.338Z,58.10
2023-07-26T03:02:29.753Z,57.95
2023-07-26T03:05:32.309Z,58.45
2023-07-26T03:08:34.690Z,57.91
2023-07-26T03:11:37.585Z,58.08
2023-07-26T03:14:41.948Z,58.10
2023-07-26T03:17:44.912Z,58.04
2023-07-26T03:20:47.718Z,58.10
2023-07-26T03:23:50.144Z,58.11
2023-07-26T03:26:53.248Z,58.32
2023-07-26T03:29:57.516Z,58.20
2023-07-26T03:32:59.939Z,57.86
2023-07-26T03:36:03.698Z,58.28
2023-07-26T03:39:06.166Z,57.86
2023-07-26T03:42:08.975Z,57.94
2023-07-26T03:45:11.368Z,57.95
2023-07-26T03:48:13.958Z,57.85
2023-07-26T03:51:16.857Z,57.77
2023-07-26T03:54:19.371Z,57.81
2023-07-26T03:57:21.849Z,57.70
2023-07-26T04:00:24.259Z,57.90
2023-07-26T04:03:28.249Z,57.86
2023-07-26T04:06:31.198Z,57.81
2023-07-26T04:09:33.961Z,57.42
2023-07-26T04:12:36.323Z,57.47
2023-07-26T04:15:40.458Z,57.88
2023-07-26T04:18:43.039Z,57.61
2023-07-26T04:21:45.432Z,57.57
2023-07-26T04:24:47.957Z,57.71
2023-07-26T04:27:50.430Z,57.35
2023-07-26T04:30:55.003Z,57.27
2023-07-26T04:33:57.762Z,57.12
2023-07-26T04:37:00.178Z,57.36
2023-07-26T04:40:02.699Z,57.20
2023-07-26T04:43:05.355Z,57.56
2023-07-26T04:46:07.749Z,57.47
2023-07-26T04:49:10.196Z,57.31
2023-07-26T04:52:12.557Z,57.71
2023-07-26T04:55:14.958Z,57.37
2023-07-26T04:58:18.031Z,57.21
2023-07-26T05:01:21.162Z,57.54
2023-07-26T05:04:23.645Z,57.27
2023-07-26T05:07:26.189Z,57.25
2023-07-26T05:10:28.665Z,57.43
2023-07-26T05:13:31.032Z,57.11
2023-07-26T05:16:33.462Z,57.23
2023-07-26T05:19:36.129Z,57.23
2023-07-26T05:22:38.511Z,56.97
2023-07-26T05:25:43.471Z,56.67
2023-07-26T05:28:45.852Z,56.97
2023-07-26T05:31:48.243Z,56.94
2023-07-26T05:35:00.555Z,57.33
2023-07-26T05:38:03.678Z,56.88
2023-07-26T05:41:06.535Z,57.00
2023-07-26T05:44:09.467Z,57.00
2023-07-26T05:47:12.366Z,56.92
2023-07-26T05:50:15.770Z,56.71
2023-07-26T05:53:18.153Z,57.07
2023-07-26T05:56:20.700Z,57.04
2023-07-26T05:59:23.072Z,57.16
2023-07-26T06:02:25.534Z,56.78
2023-07-26T06:05:28.427Z,56.93
2023-07-26T06:08:30.801Z,56.77
2023-07-26T06:11:37.654Z,56.89
2023-07-26T06:14:46.386Z,56.75
2023-07-26T06:17:48.812Z,56.83
2023-07-26T06:20:51.152Z,56.79
2023-07-26T06:23:53.530Z,56.67
2023-07-26T06:26:56.096Z,56.60
2023-07-26T06:29:58.527Z,56.88
2023-07-26T06:33:00.993Z,56.91
2023-07-26T06:50:11.020Z,57.14
2023-07-26T06:53:13.646Z,57.23
2023-07-26T06:56:16.109Z,56.97
2023-07-26T06:59:18.456Z,57.23
2023-07-26T07:02:21.060Z,57.04
2023-07-26T07:05:24.140Z,56.98
2023-07-26T07:08:27.111Z,57.15
2023-07-26T07:11:29.528Z,56.85
2023-07-26T07:14:31.912Z,56.96
2023-07-26T07:17:34.581Z,56.90
2023-07-26T07:20:36.995Z,56.90
2023-07-26T07:23:39.361Z,57.06
2023-07-26T07:26:41.720Z,57.17
2023-07-26T07:29:44.137Z,56.81
2023-07-26T07:32:46.610Z,56.89
2023-07-26T07:35:49.063Z,57.08
2023-07-26T07:38:51.445Z,56.68
2023-07-26T07:41:53.839Z,56.92
2023-07-26T07:44:56.232Z,56.78
2023-07-26T07:47:58.718Z,57.14
2023-07-26T07:51:01.152Z,56.76
2023-07-26T07:54:03.731Z,56.78
2023-07-26T07:57:06.483Z,56.80
2023-07-26T08:00:11.499Z,57.04
2023-07-26T08:03:16.867Z,57.05
2023-07-26T08:06:19.331Z,56.93
2023-07-26T08:09:21.717Z,56.88
2023-07-26T08:12:24.072Z,57.24
2023-07-26T08:15:28.355Z,57.48
2023-07-26T08:18:30.781Z,57.30
2023-07-26T08:21:33.350Z,57.34
2023-07-26T08:24:35.890Z,57.41
2023-07-26T08:27:39.050Z,57.34
2023-07-26T08:30:42.275Z,57.61
2023-07-26T08:33:44.727Z,57.24
2023-07-26T08:36:47.202Z,57.09
2023-07-26T08:39:49.549Z,56.42
2023-07-26T08:42:51.960Z,54.05
2023-07-26T08:45:55.142Z,52.89
2023-07-26T08:48:58.290Z,52.68
2023-07-26T08:52:03.571Z,52.92
2023-07-26T08:55:11.182Z,52.21
2023-07-26T08:58:13.532Z,52.25
2023-07-26T09:01:16.029Z,52.37
2023-07-26T09:04:18.465Z,52.21
2023-07-26T09:07:20.917Z,51.95
2023-07-26T09:10:24.798Z,51.84
2023-07-26T09:13:27.180Z,52.39
2023-07-26T09:16:30.828Z,53.07
2023-07-26T09:19:35.016Z,53.20
2023-07-26T09:22:38.041Z,53.44
2023-07-26T09:25:45.337Z,52.97
2023-07-26T09:28:54.611Z,52.11
2023-07-26T09:31:57.201Z,52.15
2023-07-26T09:35:01.496Z,51.69
2023-07-26T09:38:12.189Z,52.27
2023-07-26T09:41:27.139Z,51.92
2023-07-26T09:44:29.547Z,51.77
2023-07-26T09:47:40.622Z,52.10
2023-07-26T09:50:45.430Z,52.03
2023-07-26T09:53:48.671Z,52.20
2023-07-26T09:56:52.230Z,51.99
2023-07-26T10:00:02.739Z,52.01
2023-07-26T10:03:07.928Z,51.65
2023-07-26T10:06:10.448Z,51.26
2023-07-26T10:09:16.939Z,51.60
2023-07-26T10:12:21.414Z,51.33
2023-07-26T10:15:25.970Z,51.44
2023-07-26T10:18:29.948Z,50.81
2023-07-26T10:21:32.960Z,51.37
2023-07-26T10:24:37.797Z,50.37
2023-07-26T10:27:41.468Z,50.88
2023-07-26T10:30:44.209Z,51.11
2023-07-26T10:33:46.854Z,51.33
2023-07-26T10:36:49.375Z,51.16
2023-07-26T10:39:51.859Z,51.41
2023-07-26T10:42:54.230Z,51.25
2023-07-26T10:45:56.818Z,51.07
2023-07-26T10:48:59.202Z,51.14
2023-07-26T10:52:04.048Z,50.93
2023-07-26T10:55:25.075Z,50.68
2023-07-26T10:58:27.462Z,50.68
2023-07-26T11:01:31.980Z,51.32
2023-07-26T11:04:34.459Z,51.07
2023-07-26T11:08:01.734Z,51.55
2023-07-26T11:11:04.146Z,50.82
2023-07-26T11:14:17.502Z,51.35
2023-07-26T11:17:19.874Z,51.22
2023-07-26T11:20:22.333Z,51.30
2023-07-26T11:23:28.265Z,50.87
2023-07-26T11:26:31.359Z,51.00
2023-07-26T11:29:37.042Z,51.19
2023-07-26T11:32:52.850Z,51.20
2023-07-26T11:35:55.410Z,51.01
2023-07-26T11:38:57.811Z,50.93
2023-07-26T11:42:00.215Z,50.27
2023-07-26T11:45:09.185Z,51.03
2023-07-26T11:48:12.199Z,50.59
2023-07-26T11:51:14.627Z,51.09
2023-07-26T11:54:18.218Z,50.97
2023-07-26T11:57:21.859Z,50.94
2023-07-26T12:00:24.417Z,50.64
2023-07-26T12:03:28.179Z,51.03
2023-07-26T12:06:34.691Z,50.97
2023-07-26T12:09:47.150Z,50.55
2023-07-26T12:12:49.718Z,51.25
2023-07-26T12:15:56.733Z,50.88
2023-07-26T12:19:02.073Z,50.70
2023-07-26T12:22:05.357Z,51.03
2023-07-26T12:25:08.573Z,50.93
2023-07-26T12:28:11.055Z,50.76
2023-07-26T12:31:21.568Z,50.94
2023-07-26T12:34:32.864Z,51.30
2023-07-26T12:37:35.303Z,51.21
2023-07-26T12:40:38.000Z,50.95
2023-07-26T12:43:41.377Z,51.08
2023-07-26T12:47:18.927Z,51.24
2023-07-26T12:50:08.591Z,50.43
2023-07-26T12:53:14.434Z,51.02
2023-07-26T12:56:17.071Z,51.28
2023-07-26T12:59:19.445Z,51.50
2023-07-26T13:02:21.918Z,51.90
2023-07-26T13:05:24.427Z,51.50
2023-07-26T13:08:27.057Z,50.99
2023-07-26T13:11:30.235Z,51.46
2023-07-26T13:14:32.748Z,51.58
2023-07-26T13:17:35.173Z,51.50
2023-07-26T13:20:37.673Z,51.50
2023-07-26T13:23:40.142Z,51.58
2023-07-26T13:26:42.518Z,51.48
2023-07-26T13:29:44.855Z,51.36
2023-07-26T13:32:47.333Z,51.73
2023-07-26T13:35:50.242Z,51.19
2023-07-26T13:38:52.734Z,51.56
2023-07-26T13:41:55.141Z,51.81
2023-07-26T13:44:57.945Z,52.26
2023-07-26T13:48:00.358Z,51.41
2023-07-26T13:51:03.285Z,51.22
2023-07-26T13:54:06.217Z,51.04
2023-07-26T13:57:12.369Z,52.54
2023-07-26T14:00:16.692Z,52.51
2023-07-26T14:03:19.120Z,52.62
2023-07-26T14:06:21.551Z,52.46
2023-07-26T14:09:23.948Z,52.97
2023-07-26T14:12:26.391Z,52.98
2023-07-26T14:15:28.869Z,53.11
2023-07-26T14:18:31.267Z,53.31
2023-07-26T14:21:33.633Z,53.05
2023-07-26T14:24:36.086Z,53.31
2023-07-26T14:27:38.488Z,53.30
2023-07-26T14:30:40.985Z,53.44
2023-07-26T14:33:43.944Z,52.83
2023-07-26T14:36:46.381Z,53.68
2023-07-26T14:39:50.919Z,53.29
2023-07-26T14:42:53.443Z,53.20
2023-07-26T14:45:55.849Z,53.59
2023-07-26T14:48:58.244Z,53.68
2023-07-26T14:52:00.659Z,53.75
2023-07-26T14:55:03.312Z,53.39
2023-07-26T14:58:05.806Z,53.59
2023-07-26T15:01:08.295Z,53.53
2023-07-26T15:04:10.963Z,53.36
2023-07-26T15:07:14.068Z,53.38
2023-07-26T15:10:21.513Z,53.33
2023-07-26T15:13:24.651Z,53.61
2023-07-26T15:16:27.161Z,53.75
2023-07-26T15:19:29.626Z,53.61
2023-07-26T15:22:34.797Z,53.90
2023-07-26T15:25:37.206Z,54.01
2023-07-26T15:28:39.608Z,53.87
2023-07-26T15:31:42.002Z,53.78
2023-07-26T15:34:44.408Z,53.96
2023-07-26T15:37:47.672Z,53.97
2023-07-26T15:40:50.266Z,54.05
2023-07-26T15:47:14.998Z,54.15
2023-07-26T15:50:17.497Z,54.06
2023-07-26T15:53:19.872Z,54.34
2023-07-26T15:56:23.907Z,54.19
2023-07-26T15:59:26.432Z,54.54
2023-07-26T16:02:29.483Z,54.74
2023-07-26T16:14:49.037Z,54.48
2023-07-26T16:24:04.334Z,54.46
2023-07-26T16:27:07.513Z,54.80
2023-07-26T16:30:10.164Z,54.93
2023-07-26T16:33:12.632Z,54.64
2023-07-26T16:36:15.015Z,54.89
2023-07-26T16:39:17.426Z,55.08
2023-07-26T16:42:19.906Z,55.13
2023-07-26T16:45:22.356Z,54.90
2023-07-26T16:48:25.650Z,55.20
2023-07-26T16:51:28.124Z,55.36
2023-07-26T16:54:30.510Z,55.23
2023-07-26T16:57:32.938Z,55.06
2023-07-26T17:00:36.165Z,55.40
2023-07-26T17:03:38.653Z,55.62
2023-07-26T17:06:41.187Z,55.37
2023-07-26T17:10:02.000Z,55.48
2023-07-26T17:13:04.399Z,55.66
2023-07-26T17:16:06.898Z,55.64
2023-07-26T17:19:09.494Z,55.61
2023-07-26T17:22:11.878Z,55.64
2023-07-26T17:25:14.321Z,55.80
2023-07-26T17:28:16.710Z,55.72
2023-07-26T17:31:19.236Z,55.72
2023-07-26T17:34:21.638Z,55.56
2023-07-26T17:37:23.998Z,56.11
2023-07-26T17:40:30.871Z,56.06
2023-07-26T17:43:34.559Z,55.95
2023-07-26T17:46:36.953Z,55.79
2023-07-26T17:49:39.384Z,56.25
2023-07-26T17:52:42.232Z,55.92
2023-07-26T17:55:44.577Z,56.11
2023-07-26T17:58:47.122Z,56.52
2023-07-26T18:01:53.361Z,56.37
2023-07-26T18:04:55.781Z,56.42
2023-07-26T18:07:58.135Z,56.47
2023-07-26T18:11:00.544Z,56.36
2023-07-26T18:14:03.088Z,56.33
2023-07-26T18:17:05.679Z,56.26
2023-07-26T18:20:08.884Z,56.62
2023-07-26T18:23:11.309Z,56.70
2023-07-26T18:26:15.048Z,57.03
2023-07-26T18:29:17.417Z,56.56
2023-07-26T18:32:19.780Z,57.00
2023-07-26T18:35:22.129Z,56.67
2023-07-26T18:38:25.169Z,56.91
2023-07-26T18:41:27.576Z,56.89
2023-07-26T18:44:30.135Z,57.24
2023-07-26T18:47:32.643Z,56.79
2023-07-26T18:50:35.167Z,56.96
2023-07-26T18:53:37.723Z,57.01
2023-07-26T18:56:40.250Z,56.95
2023-07-26T18:59:42.654Z,57.27
2023-07-26T19:02:46.102Z,57.18
2023-07-26T19:05:48.850Z,57.35
2023-07-26T19:08:51.285Z,57.02
2023-07-26T19:11:53.760Z,57.54
2023-07-26T19:14:56.303Z,57.16
2023-07-26T19:17:58.990Z,57.18
2023-07-26T19:21:02.490Z,57.34
2023-07-26T19:24:06.318Z,57.25
2023-07-26T19:27:08.739Z,57.39
2023-07-26T19:30:12.371Z,57.51
2023-07-26T19:33:14.743Z,57.65
2023-07-26T19:36:17.116Z,57.61
2023-07-26T19:39:19.494Z,57.49
2023-07-26T19:42:23.037Z,57.42
2023-07-26T19:45:25.527Z,57.61
2023-07-26T19:48:28.593Z,57.38
2023-07-26T19:51:30.975Z,57.39
2023-07-26T19:54:34.031Z,57.77
2023-07-26T19:57:36.435Z,57.58
2023-07-26T20:00:39.346Z,57.70
2023-07-26T20:03:42.257Z,57.85
2023-07-26T20:06:51.012Z,57.73
2023-07-26T20:09:53.492Z,57.68
2023-07-26T20:12:56.044Z,57.84
2023-07-26T20:15:58.590Z,57.93
2023-07-26T20:19:00.947Z,57.78
2023-07-26T20:22:03.451Z,58.14
2023-07-26T20:25:06.072Z,58.13
2023-07-26T20:28:08.426Z,57.84
2023-07-26T20:31:10.772Z,58.04
2023-07-26T20:34:13.187Z,58.25
2023-07-26T20:37:15.606Z,57.97
2023-07-26T20:40:17.952Z,58.36
2023-07-26T20:43:20.378Z,57.93
2023-07-26T20:46:22.842Z,58.26
2023-07-26T20:49:25.213Z,58.25
2023-07-26T20:52:27.572Z,58.23
2023-07-26T20:55:30.070Z,58.22
2023-07-26T20:58:32.501Z,58.23
2023-07-26T21:01:35.132Z,58.41
2023-07-26T21:04:37.735Z,58.40
2023-07-26T21:07:40.083Z,58.23
2023-07-26T21:10:43.359Z,58.28
2023-07-26T21:13:45.786Z,58.28
2023-07-26T21:16:48.337Z,58.28
2023-07-26T21:19:50.844Z,58.57
2023-07-26T21:22:53.225Z,58.28
2023-07-26T21:25:55.584Z,58.45
2023-07-26T21:28:57.978Z,58.40
2023-07-26T21:32:03.155Z,58.47
2023-07-26T21:35:06.233Z,58.21
2023-07-26T21:38:08.624Z,58.53
2023-07-26T21:41:10.938Z,58.49
2023-07-26T21:44:13.294Z,58.33
2023-07-26T21:47:15.676Z,58.68
2023-07-26T21:50:18.211Z,58.41
2023-07-26T21:53:20.585Z,58.54
2023-07-26T21:56:23.587Z,58.48
2023-07-26T21:59:26.874Z,58.28
2023-07-26T22:02:29.301Z,58.53
2023-07-26T22:05:31.721Z,58.53
2023-07-26T22:08:34.121Z,58.43
2023-07-26T22:11:36.514Z,58.82
2023-07-26T22:14:38.916Z,58.37
2023-07-26T22:17:41.783Z,58.75
2023-07-26T22:21:01.896Z,58.50
2023-07-26T22:24:06.863Z,58.51
2023-07-26T22:27:09.297Z,58.56
2023-07-26T22:30:11.821Z,58.91
2023-07-26T22:33:14.323Z,58.79
2023-07-26T22:36:16.694Z,58.60
2023-07-26T22:39:19.232Z,58.80
2023-07-26T22:42:21.613Z,58.77
2023-07-26T22:45:24.035Z,58.83
2023-07-26T22:48:26.430Z,58.73
2023-07-26T22:51:29.392Z,58.74
2023-07-26T22:54:33.938Z,58.99
2023-07-26T22:57:36.452Z,58.82
2023-07-26T23:00:38.785Z,58.94
2023-07-26T23:03:44.443Z,58.89
2023-07-26T23:06:46.847Z,59.06
2023-07-26T23:09:49.271Z,58.97
2023-07-26T23:12:51.668Z,58.69
2023-07-26T23:15:54.140Z,58.74
2023-07-26T23:18:56.513Z,58.94
2023-07-26T23:21:58.953Z,58.96
2023-07-26T23:25:01.349Z,58.93
2023-07-26T23:28:03.947Z,59.06
2023-07-26T23:31:07.830Z,59.13
2023-07-26T23:34:10.217Z,59.15
2023-07-26T23:37:12.634Z,59.22
2023-07-26T23:40:15.210Z,59.11
2023-07-26T23:43:17.571Z,59.17
2023-07-26T23:46:19.966Z,59.36
2023-07-26T23:49:22.350Z,59.21
2023-07-26T23:52:24.851Z,59.22
2023-07-26T23:55:27.385Z,59.16
2023-07-26T23:58:29.827Z,59.36
